Time,TemperatureF,DewpointF,PressureIn,WindDirection,WindDirectionDegrees,WindSpeedMPH,WindSpeedGustMPH,Humidity,HourlyPrecipIn,Conditions,Clouds,dailyrainin,SoftwareType,DateUTC
2013-11-12 00:01:00,44.2,18.0,30.10,West,276,2.0,10.0,35,0.00,,,0.00,weatherlink.com 1.10,2013-11-12 05:01:00,
2013-11-12 00:17:00,44.1,12.0,30.10,NW,322,0.0,7.0,27,0.00,,,0.00,weatherlink.com 1.10,2013-11-12 05:17:00,
2013-11-12 00:32:00,43.7,11.0,30.09,NE,46,2.0,6.0,26,0.00,,,0.00,weatherlink.com 1.10,2013-11-12 05:32:00,
2013-11-12 00:47:00,43.1,10.0,30.08,NNW,328,0.0,9.0,26,0.00,,,0.00,weatherlink.com 1.10,2013-11-12 05:47:00,
2013-11-12 01:02:00,42.3,12.0,30.07,WNW,290,2.0,10.0,29,0.00,,,0.00,weatherlink.com 1.10,2013-11-12 06:02:00,
2013-11-12 01:17:00,41.5,16.0,30.07,NW,304,1.0,8.0,35,0.00,,,0.00,weatherlink.com 1.10,2013-11-12 06:17:00,
2013-11-12 01:32:00,40.6,19.0,30.06,NNE,27,1.0,8.0,42,0.00,,,0.00,weatherlink.com 1.10,2013-11-12 06:32:00,
2013-11-12 01:47:00,40.5,19.0,30.05,NNW,331,0.0,7.0,42,0.00,,,0.00,weatherlink.com 1.10,2013-11-12 06:47:00,
2013-11-12 02:02:00,41.2,18.0,30.05,WSW,257,8.0,11.0,40,0.00,,,0.00,weatherlink.com 1.10,2013-11-12 07:02:00,
2013-11-12 02:17:00,41.5,20.0,30.04,NW,318,8.0,10.0,42,0.00,,,0.00,weatherlink.com 1.10,2013-11-12 07:17:00,
2013-11-12 02:32:00,41.0,20.0,30.04,NNW,333,4.0,7.0,44,0.00,,,0.00,weatherlink.com 1.10,2013-11-12 07:32:00,
2013-11-12 02:47:00,40.6,21.0,30.03,WNW,294,5.0,11.0,46,0.00,,,0.00,weatherlink.com 1.10,2013-11-12 07:47:00,
2013-11-12 03:02:00,40.3,21.0,30.03,NNW,327,7.0,14.0,47,0.00,,,0.00,weatherlink.com 1.10,2013-11-12 08:02:00,
2013-11-12 03:17:00,40.1,22.0,30.02,NW,322,4.0,11.0,48,0.00,,,0.00,weatherlink.com 1.10,2013-11-12 08:17:00,
2013-11-12 03:33:00,40.2,22.0,30.02,SW,217,5.0,10.0,48,0.00,,,0.00,weatherlink.com 1.10,2013-11-12 08:33:00,
2013-11-12 03:48:00,40.1,23.0,30.02,NNW,345,8.0,16.0,50,0.00,,,0.00,weatherlink.com 1.10,2013-11-12 08:48:00,
2013-11-12 04:03:00,39.8,23.0,30.02,NW,305,6.0,12.0,51,0.00,,,0.00,weatherlink.com 1.10,2013-11-12 09:03:00,
2013-11-12 04:18:00,39.7,22.0,30.01,North,5,5.0,13.0,50,0.00,,,0.00,weatherlink.com 1.10,2013-11-12 09:18:00,
2013-11-12 04:33:00,39.8,21.0,30.01,North,9,5.0,11.0,48,0.00,,,0.00,weatherlink.com 1.10,2013-11-12 09:33:00,
2013-11-12 04:48:00,39.8,20.0,30.01,SW,220,3.0,13.0,46,0.00,,,0.00,weatherlink.com 1.10,2013-11-12 09:48:00,
2013-11-12 05:03:00,39.5,21.0,30.00,WNW,286,7.0,13.0,47,0.00,,,0.00,weatherlink.com 1.10,2013-11-12 10:03:00,
2013-11-12 05:18:00,39.3,21.0,30.00,NE,39,6.0,12.0,48,0.00,,,0.00,weatherlink.com 1.10,2013-11-12 10:18:00,
2013-11-12 05:33:00,39.1,22.0,30.00,WNW,298,4.0,10.0,51,0.00,,,0.00,weatherlink.com 1.10,2013-11-12 10:33:00,
2013-11-12 05:48:00,39.0,22.0,30.00,NNW,344,5.0,10.0,51,0.00,,,0.00,weatherlink.com 1.10,2013-11-12 10:48:00,
2013-11-12 06:03:00,39.0,22.0,29.99,NW,304,8.0,11.0,51,0.00,,,0.00,weatherlink.com 1.10,2013-11-12 11:03:00,
2013-11-12 06:18:00,38.8,22.0,30.00,SW,220,4.0,13.0,52,0.00,,,0.00,weatherlink.com 1.10,2013-11-12 11:18:00,
2013-11-12 06:33:00,38.2,23.0,29.99,NNW,327,2.0,13.0,54,0.00,,,0.00,weatherlink.com 1.10,2013-11-12 11:33:00,
2013-11-12 06:48:00,37.9,22.0,29.99,NW,306,5.0,10.0,54,0.00,,,0.00,weatherlink.com 1.10,2013-11-12 11:48:00,
2013-11-12 07:04:00,37.5,23.0,30.00,NW,309,6.0,12.0,56,0.00,,,0.00,weatherlink.com 1.10,2013-11-12 12:04:00,
2013-11-12 07:19:00,37.2,23.0,30.00,North,351,9.0,11.0,56,0.00,,,0.00,weatherlink.com 1.10,2013-11-12 12:19:00,
2013-11-12 07:34:00,37.0,23.0,30.00,NW,315,4.0,12.0,57,0.00,,,0.00,weatherlink.com 1.10,2013-11-12 12:34:00,
2013-11-12 07:49:00,36.6,24.0,30.00,NNW,332,3.0,13.0,60,0.00,,,0.00,weatherlink.com 1.10,2013-11-12 12:49:00,
2013-11-12 08:04:00,36.2,23.0,29.99,West,273,6.0,13.0,60,0.00,,,0.00,weatherlink.com 1.10,2013-11-12 13:04:00,
2013-11-12 08:19:00,35.6,24.0,30.00,West,277,8.0,18.0,63,0.00,,,0.00,weatherlink.com 1.10,2013-11-12 13:19:00,
2013-11-12 08:34:00,35.4,25.0,29.99,West,279,11.0,13.0,66,0.00,,,0.00,weatherlink.com 1.10,2013-11-12 13:34:00,
2013-11-12 08:49:00,35.0,26.0,29.99,NW,321,14.0,22.0,69,0.00,,,0.00,weatherlink.com 1.10,2013-11-12 13:49:00,
2013-11-12 09:04:00,34.7,26.0,29.98,West,274,15.0,26.0,71,0.00,,,0.00,weatherlink.com 1.10,2013-11-12 14:04:00,
2013-11-12 09:19:00,34.5,28.0,29.97,WNW,292,13.0,25.0,77,0.00,,,0.00,weatherlink.com 1.10,2013-11-12 14:19:00,
2013-11-12 09:34:00,34.5,30.0,29.99,NW,306,10.0,28.0,82,0.00,,,0.00,weatherlink.com 1.10,2013-11-12 14:34:00,
2013-11-12 09:49:00,35.0,30.0,29.99,WNW,298,10.0,22.0,82,0.00,,,0.00,weatherlink.com 1.10,2013-11-12 14:49:00,
2013-11-12 10:04:00,34.3,30.0,29.99,West,265,12.0,22.0,85,0.00,,,0.00,weatherlink.com 1.10,2013-11-12 15:04:00,
2013-11-12 10:19:00,32.8,30.0,30.00,West,261,8.0,26.0,90,0.00,,,0.00,weatherlink.com 1.10,2013-11-12 15:19:00,
2013-11-12 10:34:00,31.2,29.0,30.00,WNW,286,5.0,21.0,93,0.00,,,0.00,weatherlink.com 1.10,2013-11-12 15:34:00,
2013-11-12 10:49:00,30.1,29.0,30.00,West,265,8.0,22.0,94,0.00,,,0.00,weatherlink.com 1.10,2013-11-12 15:49:00,
2013-11-12 11:04:00,29.4,28.0,30.01,NW,325,2.0,23.0,94,0.00,,,0.00,weatherlink.com 1.10,2013-11-12 16:04:00,
2013-11-12 11:20:00,28.9,27.0,30.01,West,270,1.0,15.0,94,0.00,,,0.00,weatherlink.com 1.10,2013-11-12 16:20:00,
2013-11-12 11:35:00,28.0,27.0,30.02,West,281,8.0,16.0,94,0.00,,,0.00,weatherlink.com 1.10,2013-11-12 16:35:00,
2013-11-12 11:50:00,27.5,26.0,30.02,WNW,297,11.0,17.0,94,0.00,,,0.00,weatherlink.com 1.10,2013-11-12 16:50:00,
2013-11-12 12:05:00,27.0,26.0,30.02,SSW,201,16.0,23.0,94,0.00,,,0.00,weatherlink.com 1.10,2013-11-12 17:05:00,
2013-11-12 12:20:00,26.7,25.0,30.01,West,273,7.0,19.0,94,0.00,,,0.00,weatherlink.com 1.10,2013-11-12 17:20:00,
2013-11-12 12:35:00,26.4,25.0,30.01,NW,304,2.0,19.0,94,0.00,,,0.00,weatherlink.com 1.10,2013-11-12 17:35:00,
2013-11-12 12:50:00,26.0,25.0,30.02,South,177,3.0,16.0,94,0.00,,,0.00,weatherlink.com 1.10,2013-11-12 17:50:00,
2013-11-12 13:05:00,25.7,24.0,30.02,West,274,12.0,22.0,94,0.00,,,0.00,weatherlink.com 1.10,2013-11-12 18:05:00,
2013-11-12 13:20:00,24.7,23.0,30.03,South,191,9.0,19.0,94,0.00,,,0.00,weatherlink.com 1.10,2013-11-12 18:20:00,
2013-11-12 13:35:00,24.1,23.0,30.02,West,279,7.0,20.0,94,0.00,,,0.00,weatherlink.com 1.10,2013-11-12 18:35:00,
2013-11-12 13:50:00,23.0,22.0,30.03,WNW,290,9.0,20.0,94,0.00,,,0.00,weatherlink.com 1.10,2013-11-12 18:50:00,
2013-11-12 14:05:00,21.8,20.0,30.03,North,5,14.0,24.0,93,0.00,,,0.00,weatherlink.com 1.10,2013-11-12 19:05:00,
2013-11-12 14:20:00,21.5,20.0,30.04,WSW,246,7.0,19.0,93,0.00,,,0.00,weatherlink.com 1.10,2013-11-12 19:20:00,
2013-11-12 14:35:00,21.0,19.0,30.03,WSW,253,8.0,23.0,93,0.00,,,0.00,weatherlink.com 1.10,2013-11-12 19:35:00,
2013-11-12 14:50:00,20.5,19.0,30.04,WSW,240,8.0,29.0,93,0.00,,,0.00,weatherlink.com 1.10,2013-11-12 19:50:00,
2013-11-12 15:05:00,20.2,19.0,30.05,WSW,239,15.0,26.0,93,0.00,,,0.00,weatherlink.com 1.10,2013-11-12 20:05:00,
2013-11-12 15:20:00,19.9,18.0,30.05,WNW,282,7.0,21.0,93,0.00,,,0.00,weatherlink.com 1.10,2013-11-12 20:20:00,
2013-11-12 15:35:00,19.7,18.0,30.06,West,279,11.0,20.0,93,0.00,,,0.00,weatherlink.com 1.10,2013-11-12 20:35:00,
2013-11-12 15:50:00,19.3,18.0,30.06,West,261,13.0,25.0,93,0.00,,,0.00,weatherlink.com 1.10,2013-11-12 20:50:00,
2013-11-12 16:05:00,18.7,17.0,30.05,SW,231,10.0,25.0,92,0.00,,,0.00,weatherlink.com 1.10,2013-11-12 21:05:00,
2013-11-12 16:20:00,18.1,16.0,30.07,NW,325,15.0,24.0,92,0.00,,,0.00,weatherlink.com 1.10,2013-11-12 21:20:00,
2013-11-12 16:36:00,17.8,16.0,30.09,NW,319,8.0,21.0,92,0.00,,,0.00,weatherlink.com 1.10,2013-11-12 21:36:00,
2013-11-12 16:51:00,17.2,15.0,30.11,NW,304,9.0,20.0,92,0.00,,,0.00,weatherlink.com 1.10,2013-11-12 21:51:00,
2013-11-12 17:06:00,16.9,15.0,30.13,SW,221,7.0,19.0,92,0.00,,,0.00,weatherlink.com 1.10,2013-11-12 22:06:00,
2013-11-12 17:21:00,16.1,14.0,30.13,WSW,245,13.0,24.0,92,0.00,,,0.00,weatherlink.com 1.10,2013-11-12 22:21:00,
2013-11-12 17:36:00,15.3,13.0,30.15,WNW,282,8.0,31.0,91,0.00,,,0.00,weatherlink.com 1.10,2013-11-12 22:36:00,
2013-11-12 17:51:00,14.6,13.0,30.15,WSW,242,13.0,25.0,91,0.00,,,0.00,weatherlink.com 1.10,2013-11-12 22:51:00,
2013-11-12 18:06:00,14.2,12.0,30.19,SSW,207,9.0,24.0,91,0.00,,,0.00,weatherlink.com 1.10,2013-11-12 23:06:00,
2013-11-12 18:21:00,14.0,12.0,30.19,West,280,7.0,21.0,91,0.00,,,0.00,weatherlink.com 1.10,2013-11-12 23:21:00,
2013-11-12 18:36:00,13.6,12.0,30.19,West,279,8.0,21.0,91,0.00,,,0.00,weatherlink.com 1.10,2013-11-12 23:36:00,
2013-11-12 18:51:00,13.0,11.0,30.20,WSW,257,6.0,23.0,91,0.00,,,0.00,weatherlink.com 1.10,2013-11-12 23:51:00,
2013-11-12 19:06:00,12.5,10.0,30.20,SSW,213,8.0,24.0,91,0.00,,,0.00,weatherlink.com 1.10,2013-11-13 00:06:00,
2013-11-12 19:21:00,11.8,10.0,30.20,SW,217,8.0,29.0,91,0.00,,,0.00,weatherlink.com 1.10,2013-11-13 00:21:00,
2013-11-12 19:36:00,11.2,9.0,30.20,SSW,209,16.0,28.0,91,0.00,,,0.00,weatherlink.com 1.10,2013-11-13 00:36:00,
2013-11-12 19:51:00,11.3,9.0,30.20,North,355,6.0,22.0,91,0.00,,,0.00,weatherlink.com 1.10,2013-11-13 00:51:00,
2013-11-12 20:06:00,11.4,9.0,30.23,North,355,8.0,25.0,91,0.00,,,0.00,weatherlink.com 1.10,2013-11-13 01:06:00,
2013-11-12 20:21:00,11.6,10.0,30.24,SW,219,10.0,31.0,91,0.00,,,0.00,weatherlink.com 1.10,2013-11-13 01:21:00,
2013-11-12 20:36:00,11.8,10.0,30.25,SW,221,19.0,28.0,91,0.00,,,0.00,weatherlink.com 1.10,2013-11-13 01:36:00,
2013-11-12 20:52:00,12.0,10.0,30.26,West,267,14.0,24.0,91,0.00,,,0.00,weatherlink.com 1.10,2013-11-13 01:52:00,
2013-11-12 21:07:00,12.2,10.0,30.28,SW,223,14.0,23.0,91,0.00,,,0.00,weatherlink.com 1.10,2013-11-13 02:07:00,
2013-11-12 21:22:00,12.3,10.0,30.29,WSW,258,10.0,23.0,91,0.00,,,0.00,weatherlink.com 1.10,2013-11-13 02:22:00,
2013-11-12 21:37:00,12.2,10.0,30.29,WSW,240,27.0,27.0,91,0.00,,,0.00,weatherlink.com 1.10,2013-11-13 02:37:00,
2013-11-12 21:52:00,12.3,10.0,30.30,SSW,194,7.0,23.0,91,0.00,,,0.00,weatherlink.com 1.10,2013-11-13 02:52:00,
2013-11-12 22:07:00,12.5,10.0,30.31,SSE,165,7.0,33.0,91,0.00,,,0.00,weatherlink.com 1.10,2013-11-13 03:07:00,
2013-11-12 22:22:00,12.4,10.0,30.32,WSW,240,16.0,24.0,91,0.00,,,0.00,weatherlink.com 1.10,2013-11-13 03:22:00,
2013-11-12 22:37:00,12.5,10.0,30.33,SW,236,12.0,25.0,91,0.00,,,0.00,weatherlink.com 1.10,2013-11-13 03:37:00,
2013-11-12 22:52:00,12.7,11.0,30.34,SW,215,11.0,18.0,91,0.00,,,0.00,weatherlink.com 1.10,2013-11-13 03:52:00,
2013-11-12 23:07:00,12.6,11.0,30.34,SSW,208,9.0,15.0,91,0.00,,,0.00,weatherlink.com 1.10,2013-11-13 04:07:00,
2013-11-12 23:22:00,12.4,10.0,30.33,SW,223,10.0,21.0,91,0.00,,,0.00,weatherlink.com 1.10,2013-11-13 04:22:00,
2013-11-12 23:37:00,12.3,10.0,30.33,SW,236,4.0,20.0,91,0.00,,,0.00,weatherlink.com 1.10,2013-11-13 04:37:00,
2013-11-12 23:52:00,12.2,10.0,30.35,West,278,4.0,27.0,91,0.00,,,0.00,weatherlink.com 1.10,2013-11-13 04:52:00,